Miyazaki, Japan
Current Conditions -  °F | °C
As of 7:00 PM on Friday 31 Oct 2014 (Local Time) from RJFM Reporting Station
Broken Clouds Broken Clouds  
Wind Chill: 73°   Ceiling: 6000
Heat Index: 73°   Visibility: 6mi
Dew Point: 66°   Wind: 5mph
Humidity: 78%   Direction: 70°ENE
Pressure: 30"   Gusts: NA
Location:  31.91°N, 131.42°E
Report Text: RJFM 311000Z 07004KT 020V100 9999 FEW020 SCT045 BKN060 23/19 Q1016
Loading
Personal Weather Stations






























Interactive Weather Map
Tropical Storm Tracking
New forecast layout! Learn more

10-Day Weather Forecast

Advertisements
Track Severe Weather on mobile